Time;durP1;ratioP1;P1;durP2;ratioP2;P2;SDS_P1;SDS_P2;PMS_P1;PMS_P2;Temp;Humidity;BMP_temperature;BMP_pressure;BME280_temperature;BME280_humidity;BME280_pressure;Samples;Min_cycle;Max_cycle;Signal;HPM_P1;HPM_P2
2023/12/09 00:01:02;;;;;;;;;;;;;;;22.26;33.89;100950.41;5031412;28;19916;-48
2023/12/09 00:03:27;;;;;;;;;;;;;;;22.26;34.21;100945.84;5006956;28;19918;-43
2023/12/09 00:05:52;;;;;;;;;;;;;;;22.26;34.07;100945.84;5014588;28;19921;-48
2023/12/09 00:08:17;;;;;;;;;;;;;;;22.24;33.95;100945.19;5068027;28;19916;-48
2023/12/09 00:10:42;;;;;;;;;;;;;;;22.25;34.01;100948.75;5018522;28;19914;-48
2023/12/09 00:13:07;;;;;;;;;;;;;;;22.23;33.85;100945.41;5061998;28;19949;-48
2023/12/09 00:15:33;;;;;;;;;;;;;;;22.21;33.84;100940.97;5035175;28;19913;-45
2023/12/09 00:17:59;;;;;;;;;;;;;;;22.21;34.26;100943.69;5014675;28;19918;-47
2023/12/09 00:20:24;;;;;;;;;;;;;;;22.21;34.11;100945.56;5024582;28;19977;-46
2023/12/09 00:22:49;;;;;;;;;;;;;;;22.21;34.16;100949.09;5035194;28;19936;-46
2023/12/09 00:25:14;;;;;;;;;;;;;;;22.21;33.93;100945.56;5032244;28;19984;-49
2023/12/09 00:27:40;;;;;;;;;;;;;;;22.20;33.99;100944.72;5019688;28;19921;-44
2023/12/09 00:30:06;;;;;;;;;;;;;;;22.21;34.14;100942.84;5052574;28;19921;-46
2023/12/09 00:32:31;;;;;;;;;;;;;;;22.22;33.91;100936.44;5027449;28;19928;-47
2023/12/09 00:34:56;;;;;;;;;;;;;;;22.20;34.21;100936.59;5010763;28;19913;-48
2023/12/09 00:37:21;;;;;;;;;;;;;;;22.21;34.19;100940.16;5023432;28;19962;-48
2023/12/09 00:39:47;;;;;;;;;;;;;;;22.19;34.04;100937.63;5028248;28;19981;-46
2023/12/09 00:42:12;;;;;;;;;;;;;;;22.17;34.04;100939.72;5009915;28;19928;-49
2023/12/09 00:44:37;;;;;;;;;;;;;;;22.18;33.94;100937.84;5091422;28;19918;-46
2023/12/09 00:47:02;;;;;;;;;;;;;;;22.17;34.17;100944.25;5026381;28;19963;-46
2023/12/09 00:49:27;;;;;;;;;;;;;;;22.17;34.16;100942.44;5017681;28;20357;-44
2023/12/09 00:51:53;;;;;;;;;;;;;;;22.16;34.00;100942.59;5010866;28;19958;-45
2023/12/09 00:54:18;;;;;;;;;;;;;;;22.15;34.01;100943.63;5036733;28;20388;-44
2023/12/09 00:56:43;;;;;;;;;;;;;;;22.15;33.98;100947.16;5017907;28;19917;-48
2023/12/09 00:59:08;;;;;;;;;;;;;;;22.15;34.15;100949.03;5071053;28;19921;-47
2023/12/09 01:01:33;;;;;;;;;;;;;;;22.15;34.04;100949.03;5027526;28;19914;-47
2023/12/09 01:03:59;;;;;;;;;;;;;;;22.14;34.05;100950.91;5020779;28;19914;-47
2023/12/09 01:06:25;;;;;;;;;;;;;;;22.16;33.94;100948.00;5068189;28;19918;-47
2023/12/09 01:08:50;;;;;;;;;;;;;;;22.15;33.82;100949.88;5037550;28;19914;-49
2023/12/09 01:11:15;;;;;;;;;;;;;;;22.14;34.08;100955.50;5023447;28;19977;-48
2023/12/09 01:13:40;;;;;;;;;;;;;;;22.13;33.83;100954.66;5012234;28;19925;-45
2023/12/09 01:16:07;;;;;;;;;;;;;;;22.14;34.10;100941.97;5036308;28;20029;-47
2023/12/09 01:18:32;;;;;;;;;;;;;;;22.11;34.13;100945.84;5032794;28;20117;-48
2023/12/09 01:20:58;;;;;;;;;;;;;;;22.12;33.89;100950.25;5010181;28;19925;-48
2023/12/09 01:23:23;;;;;;;;;;;;;;;22.13;33.89;100956.50;5076611;28;19981;-44
2023/12/09 01:25:48;;;;;;;;;;;;;;;22.12;33.95;100946.66;5027593;28;20608;-46
2023/12/09 01:28:13;;;;;;;;;;;;;;;22.11;34.17;100937.72;5010024;28;19914;-45
2023/12/09 01:30:38;;;;;;;;;;;;;;;22.09;33.91;100931.66;5027336;28;19918;-48
2023/12/09 01:33:04;;;;;;;;;;;;;;;22.08;34.02;100929.97;5035391;28;19941;-49
2023/12/09 01:35:29;;;;;;;;;;;;;;;22.07;34.17;100933.69;5032950;28;19914;-45
2023/12/09 01:37:54;;;;;;;;;;;;;;;22.07;34.20;100939.13;5031128;28;19948;-48
2023/12/09 01:40:19;;;;;;;;;;;;;;;22.07;34.19;100941.00;5028957;28;19925;-45
2023/12/09 01:42:44;;;;;;;;;;;;;;;22.05;33.86;100941.19;5025838;28;19914;-46
2023/12/09 01:45:10;;;;;;;;;;;;;;;22.03;34.21;100936.97;5015009;28;19924;-46
2023/12/09 01:47:35;;;;;;;;;;;;;;;22.03;34.27;100929.69;5034530;28;19944;-45
2023/12/09 01:50:02;;;;;;;;;;;;;;;22.02;34.15;100940.72;5057526;28;19916;-46
2023/12/09 01:52:27;;;;;;;;;;;;;;;22.02;34.23;100943.44;5033983;28;19917;-49
2023/12/09 01:54:52;;;;;;;;;;;;;;;22.01;34.02;100937.19;5041981;28;19920;-44
2023/12/09 01:57:18;;;;;;;;;;;;;;;22.01;34.24;100931.75;5025778;28;19926;-44
2023/12/09 01:59:43;;;;;;;;;;;;;;;22.02;34.17;100935.31;5016261;28;19953;-48
2023/12/09 02:02:08;;;;;;;;;;;;;;;22.02;34.24;100932.59;5072686;28;19918;-47
2023/12/09 02:04:33;;;;;;;;;;;;;;;22.00;34.15;100940.88;5082459;28;19934;-46
2023/12/09 02:06:59;;;;;;;;;;;;;;;22.00;34.17;100940.88;5033539;28;19913;-45
2023/12/09 02:09:24;;;;;;;;;;;;;;;22.00;33.90;100919.22;5032719;28;19944;-45
2023/12/09 02:12:04;;;;;;;;;;;;;;;22.00;34.10;100926.53;5019441;28;20438;-49
2023/12/09 02:14:29;;;;;;;;;;;;;;;;;;5068705;28;19910;-48
2023/12/09 02:17:04;;;;;;;;;;;;;;;21.98;34.14;100928.59;5025051;28;19942;-48
2023/12/09 02:19:29;;;;;;;;;;;;;;;21.99;34.25;100916.72;5066509;28;19992;-47
2023/12/09 02:22:01;;;;;;;;;;;;;;;21.99;34.19;100917.56;5068852;28;19922;-47
2023/12/09 02:24:27;;;;;;;;;;;;;;;21.98;33.91;100907.78;5021042;28;19917;-47
2023/12/09 02:26:53;;;;;;;;;;;;;;;22.01;33.78;100911.97;5026584;28;19921;-47
2023/12/09 02:29:18;;;;;;;;;;;;;;;22.00;34.16;100910.28;5009778;28;20312;-43
2023/12/09 02:31:43;;;;;;;;;;;;;;;22.00;34.12;100915.69;5008964;28;20439;-47
2023/12/09 02:34:08;;;;;;;;;;;;;;;22.00;34.11;100907.56;5069219;28;20016;-44
2023/12/09 02:36:34;;;;;;;;;;;;;;;22.00;34.07;100900.28;5076446;28;19920;-45
2023/12/09 02:38:59;;;;;;;;;;;;;;;22.00;33.63;100888.63;5069811;28;19914;-44
2023/12/09 02:41:24;;;;;;;;;;;;;;;22.00;33.91;100894.03;5050135;28;19986;-44
2023/12/09 02:43:50;;;;;;;;;;;;;;;22.01;33.87;100891.16;5068468;28;19914;-44
2023/12/09 02:46:15;;;;;;;;;;;;;;;22.01;33.93;100893.84;5010223;28;19993;-47
2023/12/09 02:48:40;;;;;;;;;;;;;;;22.02;33.98;100894.69;5062750;28;19994;-45
2023/12/09 02:51:06;;;;;;;;;;;;;;;22.03;33.71;100905.31;5029489;28;19960;-44
2023/12/09 02:53:31;;;;;;;;;;;;;;;22.05;33.80;100907.88;5006344;28;19972;-48
2023/12/09 02:55:56;;;;;;;;;;;;;;;22.07;33.83;100903.09;5032938;28;19914;-44
2023/12/09 02:58:21;;;;;;;;;;;;;;;22.07;33.66;100887.66;5029344;28;19918;-47
2023/12/09 03:00:46;;;;;;;;;;;;;;;22.08;33.84;100891.22;5004854;28;19918;-45
2023/12/09 03:03:12;;;;;;;;;;;;;;;22.09;33.78;100885.63;5031280;28;19924;-44
2023/12/09 03:05:37;;;;;;;;;;;;;;;22.09;33.79;100876.63;5026270;28;19966;-45
2023/12/09 03:08:02;;;;;;;;;;;;;;;22.10;33.46;100870.22;5010509;28;20372;-45
2023/12/09 03:10:27;;;;;;;;;;;;;;;22.10;33.45;100862.09;5020889;28;19949;-45
2023/12/09 03:12:52;;;;;;;;;;;;;;;22.09;33.72;100866.69;5028141;28;19919;-45
2023/12/09 03:15:18;;;;;;;;;;;;;;;22.10;33.59;100848.56;5033962;28;19989;-44
2023/12/09 03:17:43;;;;;;;;;;;;;;;22.10;33.35;100851.25;5019260;28;19940;-45
2023/12/09 03:20:09;;;;;;;;;;;;;;;22.11;33.56;100850.22;5080886;28;19916;-43
2023/12/09 03:22:34;;;;;;;;;;;;;;;22.10;33.33;100849.38;5022327;28;19918;-45
2023/12/09 03:24:59;;;;;;;;;;;;;;;22.10;33.66;100856.69;5012869;28;19936;-45
2023/12/09 03:27:24;;;;;;;;;;;;;;;22.09;33.28;100845.00;5020274;28;19924;-43
2023/12/09 03:29:49;;;;;;;;;;;;;;;22.08;33.32;100846.03;5050796;28;20409;-43
2023/12/09 03:32:15;;;;;;;;;;;;;;;22.10;33.57;100843.97;5061719;28;19912;-46
2023/12/09 03:34:40;;;;;;;;;;;;;;;22.09;33.34;100846.84;5051670;28;19912;-49
2023/12/09 03:37:05;;;;;;;;;;;;;;;22.10;33.63;100849.38;5026368;28;19935;-49
2023/12/09 03:39:30;;;;;;;;;;;;;;;22.07;33.25;100843.53;5013823;28;20001;-47
2023/12/09 03:41:55;;;;;;;;;;;;;;;22.06;33.43;100845.38;5027383;28;20402;-46
2023/12/09 03:44:20;;;;;;;;;;;;;;;22.08;33.35;100840.59;5046974;28;19966;-47
2023/12/09 03:46:46;;;;;;;;;;;;;;;22.06;33.65;100839.13;5005574;28;19916;-44
2023/12/09 03:49:11;;;;;;;;;;;;;;;22.02;33.39;100845.97;5044218;28;19933;-46
2023/12/09 03:51:36;;;;;;;;;;;;;;;21.99;33.51;100852.59;5031876;28;20175;-48
2023/12/09 03:54:01;;;;;;;;;;;;;;;21.99;33.40;100840.91;5017695;28;19922;-43
2023/12/09 03:56:26;;;;;;;;;;;;;;;22.00;33.45;100846.13;5019811;28;20163;-47
2023/12/09 03:58:53;;;;;;;;;;;;;;;21.98;33.56;100847.38;5015618;28;19914;-46
2023/12/09 04:01:18;;;;;;;;;;;;;;;21.96;33.44;100851.13;5021692;28;19914;-46
2023/12/09 04:03:43;;;;;;;;;;;;;;;21.96;33.45;100839.41;5028526;28;19925;-48
2023/12/09 04:06:08;;;;;;;;;;;;;;;21.96;33.70;100832.16;5041884;28;19913;-48
2023/12/09 04:08:34;;;;;;;;;;;;;;;21.96;33.71;100834.88;5023378;28;19929;-44
2023/12/09 04:10:59;;;;;;;;;;;;;;;21.96;33.53;100843.00;5011686;28;19923;-44
2023/12/09 04:13:24;;;;;;;;;;;;;;;;;;5019570;28;19919;-46
2023/12/09 04:15:49;;;;;;;;;;;;;;;21.96;33.57;100843.00;5038513;28;19914;-51
2023/12/09 04:18:15;;;;;;;;;;;;;;;21.96;33.69;100845.69;5039273;28;20391;-48
2023/12/09 04:20:40;;;;;;;;;;;;;;;21.95;33.32;100837.75;5030683;28;19956;-46
2023/12/09 04:23:05;;;;;;;;;;;;;;;21.92;33.69;100832.75;5025015;28;19921;-45
2023/12/09 04:25:30;;;;;;;;;;;;;;;21.91;33.77;100826.47;5008342;28;19936;-44
2023/12/09 04:27:56;;;;;;;;;;;;;;;21.92;33.39;100832.75;5024104;28;19935;-46
2023/12/09 04:30:24;;;;;;;;;;;;;;;21.90;33.66;100826.66;5035302;28;19914;-44
2023/12/09 04:32:49;;;;;;;;;;;;;;;21.90;33.53;100822.09;5087629;28;20331;-47
2023/12/09 04:35:14;;;;;;;;;;;;;;;21.90;33.77;100811.25;5022349;28;19913;-46
2023/12/09 04:37:39;;;;;;;;;;;;;;;21.90;33.79;100819.38;5031507;28;19923;-45
2023/12/09 04:40:08;;;;;;;;;;;;;;;21.91;33.43;100820.22;5017947;28;20024;-46
2023/12/09 04:42:33;;;;;;;;;;;;;;;21.91;33.52;100803.97;5074570;28;19913;-45
2023/12/09 04:44:58;;;;;;;;;;;;;;;21.89;33.56;100816.88;5033487;28;19922;-46
2023/12/09 04:47:24;;;;;;;;;;;;;;;21.86;33.47;100818.06;5016651;28;19921;-48
2023/12/09 04:49:49;;;;;;;;;;;;;;;21.91;33.77;100823.75;5024395;28;19918;-49
2023/12/09 04:52:14;;;;;;;;;;;;;;;21.90;33.51;100823.97;5036760;28;19948;-46
2023/12/09 04:54:40;;;;;;;;;;;;;;;21.86;33.71;100811.84;5046547;28;20412;-45
2023/12/09 04:57:05;;;;;;;;;;;;;;;21.82;33.81;100808.66;5026725;28;19979;-47
2023/12/09 04:59:30;;;;;;;;;;;;;;;21.82;33.76;100808.66;5057669;28;19913;-44
2023/12/09 05:01:55;;;;;;;;;;;;;;;21.82;33.80;100803.25;5068585;28;20459;-45
2023/12/09 05:04:20;;;;;;;;;;;;;;;21.83;33.91;100795.97;5009018;28;20424;-46
2023/12/09 05:06:46;;;;;;;;;;;;;;;21.81;33.75;100793.47;5028414;28;19920;-45
2023/12/09 05:09:11;;;;;;;;;;;;;;;21.80;33.94;100799.91;5056146;28;19912;-45
2023/12/09 05:11:36;;;;;;;;;;;;;;;21.80;33.95;100796.38;5064098;28;20368;-45
2023/12/09 05:14:02;;;;;;;;;;;;;;;21.81;33.74;100798.03;5064884;28;19914;-44
2023/12/09 05:16:27;;;;;;;;;;;;;;;21.80;33.83;100799.91;5036373;28;19948;-47
2023/12/09 05:18:53;;;;;;;;;;;;;;;21.80;33.58;100791.78;5013396;28;19936;-44
2023/12/09 05:21:19;;;;;;;;;;;;;;;21.84;33.88;100794.97;5019842;28;19916;-46
2023/12/09 05:23:44;;;;;;;;;;;;;;;21.85;33.70;100788.50;5034670;28;19914;-46
2023/12/09 05:26:09;;;;;;;;;;;;;;;21.82;33.92;100775.34;5042373;28;19922;-46
2023/12/09 05:28:35;;;;;;;;;;;;;;;21.82;33.99;100768.06;5080444;28;19917;-45
2023/12/09 05:31:00;;;;;;;;;;;;;;;21.80;33.88;100766.59;5048598;28;19914;-48
2023/12/09 05:33:25;;;;;;;;;;;;;;;21.83;33.89;100758.06;5021402;28;20399;-45
2023/12/09 05:35:51;;;;;;;;;;;;;;;21.83;33.66;100758.91;5013832;28;19957;-44
2023/12/09 05:38:16;;;;;;;;;;;;;;;21.82;33.91;100754.53;5035066;28;19943;-44
2023/12/09 05:40:41;;;;;;;;;;;;;;;21.79;33.92;100757.66;5029922;28;19914;-46
2023/12/09 05:43:06;;;;;;;;;;;;;;;21.80;33.68;100763.88;5009030;28;19918;-44
2023/12/09 05:45:32;;;;;;;;;;;;;;;21.77;33.85;100769.69;5038028;28;19914;-44
2023/12/09 05:47:57;;;;;;;;;;;;;;;21.72;34.16;100764.84;5025486;28;19963;-47
2023/12/09 05:50:22;;;;;;;;;;;;;;;21.70;34.09;100761.47;5006469;28;19926;-45
2023/12/09 05:52:47;;;;;;;;;;;;;;;21.68;34.29;100760.84;5010154;28;19917;-45
2023/12/09 05:55:16;;;;;;;;;;;;;;;21.64;34.26;100757.66;5015346;28;19918;-47
2023/12/09 05:57:41;;;;;;;;;;;;;;;21.64;34.32;100754.13;5000825;28;19922;-47
2023/12/09 06:00:08;;;;;;;;;;;;;;;21.63;34.51;100749.75;5012604;28;20304;-47
2023/12/09 06:02:33;;;;;;;;;;;;;;;21.61;34.47;100747.22;5067642;28;19960;-45
2023/12/09 06:04:59;;;;;;;;;;;;;;;21.59;34.33;100749.28;5001483;28;20370;-44
2023/12/09 06:07:24;;;;;;;;;;;;;;;21.59;34.63;100746.59;5006571;28;19929;-45
2023/12/09 06:09:49;;;;;;;;;;;;;;;21.57;34.67;100754.03;5011747;28;19956;-45
2023/12/09 06:12:14;;;;;;;;;;;;;;;21.56;34.80;100746.13;4999687;28;20365;-45
2023/12/09 06:14:41;;;;;;;;;;;;;;;21.54;34.49;100738.22;5009180;28;20521;-44
2023/12/09 06:17:06;;;;;;;;;;;;;;;21.51;34.92;100741.28;5009724;28;19917;-45
2023/12/09 06:19:31;;;;;;;;;;;;;;;21.48;35.02;100736.25;5005530;28;20433;-44
2023/12/09 06:21:56;;;;;;;;;;;;;;;21.48;34.85;100738.94;5005634;28;19914;-45
2023/12/09 06:24:22;;;;;;;;;;;;;;;21.45;34.92;100731.19;5009028;28;19918;-44
2023/12/09 06:26:47;;;;;;;;;;;;;;;21.44;35.27;100722.25;5004012;28;19914;-44
2023/12/09 06:29:15;;;;;;;;;;;;;;;21.43;35.21;100712.47;5005977;28;19921;-43
2023/12/09 06:31:40;;;;;;;;;;;;;;;21.42;35.22;100708.09;5061046;28;19918;-46
2023/12/09 06:34:05;;;;;;;;;;;;;;;21.44;35.07;100705.19;5005278;28;19940;-45
2023/12/09 06:36:31;;;;;;;;;;;;;;;21.44;34.94;100707.91;5003342;28;20000;-44
2023/12/09 06:38:56;;;;;;;;;;;;;;;21.44;35.27;100694.38;5002842;28;19924;-43
2023/12/09 06:41:21;;;;;;;;;;;;;;;21.45;35.20;100701.44;5004806;28;19943;-44
2023/12/09 06:43:46;;;;;;;;;;;;;;;21.45;35.12;100704.16;4995208;28;19956;-43
2023/12/09 06:46:11;;;;;;;;;;;;;;;21.46;35.23;100697.75;4999922;28;19920;-44
2023/12/09 06:48:38;;;;;;;;;;;;;;;21.45;35.09;100693.34;4997128;28;20370;-45
2023/12/09 06:51:03;;;;;;;;;;;;;;;21.43;34.99;100693.53;5006828;28;19917;-44
2023/12/09 06:53:28;;;;;;;;;;;;;;;21.42;35.38;100685.63;5000427;28;19930;-44
2023/12/09 06:55:53;;;;;;;;;;;;;;;21.42;35.04;100689.16;5001494;28;19994;-43
2023/12/09 06:58:18;;;;;;;;;;;;;;;21.41;35.02;100678.53;4997422;28;19922;-44
2023/12/09 07:00:46;;;;;;;;;;;;;;;21.41;35.34;100682.09;5000598;28;19922;-45
2023/12/09 07:03:13;;;;;;;;;;;;;;;21.41;35.23;100673.97;4995759;28;20309;-46
2023/12/09 07:05:38;;;;;;;;;;;;;;;21.41;35.27;100670.44;5011460;28;19918;-48
2023/12/09 07:08:03;;;;;;;;;;;;;;;21.38;35.31;100668.09;4999635;28;19917;-44
2023/12/09 07:10:28;;;;;;;;;;;;;;;21.37;35.62;100661.03;5015588;28;19925;-43
2023/12/09 07:12:54;;;;;;;;;;;;;;;21.37;35.39;100648.34;5010700;28;20364;-44
2023/12/09 07:15:20;;;;;;;;;;;;;;;21.35;35.61;100647.69;5084090;28;19941;-44
2023/12/09 07:17:45;;;;;;;;;;;;;;;21.35;35.65;100644.13;5012030;28;19944;-43
2023/12/09 07:20:10;;;;;;;;;;;;;;;21.34;35.53;100632.47;5010227;28;19914;-43
2023/12/09 07:22:36;;;;;;;;;;;;;;;21.33;35.69;100636.22;5010612;28;19914;-43
2023/12/09 07:25:01;;;;;;;;;;;;;;;21.31;35.33;100632.81;5087141;28;19996;-42
2023/12/09 07:27:26;;;;;;;;;;;;;;;21.30;35.30;100623.03;5020478;28;19914;-42
2023/12/09 07:29:52;;;;;;;;;;;;;;;21.29;35.38;100612.44;5005546;28;19921;-42
2023/12/09 07:32:17;;;;;;;;;;;;;;;21.29;35.67;100612.44;5009030;28;20283;-44
2023/12/09 07:34:42;;;;;;;;;;;;;;;21.30;35.23;100614.94;5019094;28;19965;-48
2023/12/09 07:37:09;;;;;;;;;;;;;;;21.29;35.39;100609.72;5025029;28;19987;-44
2023/12/09 07:39:35;;;;;;;;;;;;;;;21.28;35.52;100610.72;5080920;28;19922;-44
2023/12/09 07:42:00;;;;;;;;;;;;;;;21.28;35.57;100608.03;5037430;28;19909;-47
2023/12/09 07:44:25;;;;;;;;;;;;;;;21.27;35.79;100612.59;5018625;28;20000;-47
2023/12/09 07:46:50;;;;;;;;;;;;;;;21.28;35.52;100616.13;5009277;28;19917;-47
2023/12/09 07:49:16;;;;;;;;;;;;;;;21.27;35.38;100607.19;5067469;28;19974;-45
2023/12/09 07:51:41;;;;;;;;;;;;;;;21.27;35.42;100603.66;5065456;28;19914;-45
2023/12/09 07:54:06;;;;;;;;;;;;;;;21.26;35.47;100592.00;5021655;28;19943;-45
2023/12/09 07:56:31;;;;;;;;;;;;;;;21.25;35.35;100593.03;5070629;28;19951;-46
2023/12/09 07:58:57;;;;;;;;;;;;;;;21.25;35.33;100598.44;5022147;28;19952;-44
2023/12/09 08:01:22;;;;;;;;;;;;;;;21.23;35.57;100598.63;5007609;28;20009;-46
2023/12/09 08:03:47;;;;;;;;;;;;;;;21.23;35.49;100589.69;5028425;28;19962;-48
2023/12/09 08:06:12;;;;;;;;;;;;;;;21.22;35.23;100588.84;5034775;28;20264;-44
2023/12/09 08:08:38;;;;;;;;;;;;;;;21.21;35.42;100580.94;5022901;28;20295;-46
2023/12/09 08:11:03;;;;;;;;;;;;;;;21.19;35.21;100600.03;5019141;28;19914;-45
2023/12/09 08:13:28;;;;;;;;;;;;;;;21.17;35.37;100594.00;5031891;28;19942;-46
2023/12/09 08:15:54;;;;;;;;;;;;;;;21.18;35.26;100589.41;5054169;28;19918;-48
2023/12/09 08:18:19;;;;;;;;;;;;;;;21.17;35.44;100588.59;5030649;28;19920;-45
2023/12/09 08:20:44;;;;;;;;;;;;;;;21.15;35.25;100585.25;5040999;28;19918;-49
2023/12/09 08:23:09;;;;;;;;;;;;;;;21.13;35.45;100579.19;5022861;28;19921;-46
2023/12/09 08:25:34;;;;;;;;;;;;;;;21.12;35.28;100572.09;5005982;28;19914;-46
2023/12/09 08:28:00;;;;;;;;;;;;;;;21.11;35.22;100561.47;5034823;28;20360;-47
2023/12/09 08:30:25;;;;;;;;;;;;;;;21.09;35.54;100572.47;5007674;28;19913;-47
2023/12/09 08:32:50;;;;;;;;;;;;;;;21.09;35.34;100563.53;5033109;28;19920;-44
2023/12/09 08:35:15;;;;;;;;;;;;;;;21.08;35.28;100564.56;5046727;28;19924;-46
2023/12/09 08:37:41;;;;;;;;;;;;;;;21.06;35.63;100553.09;5031849;28;19918;-43
2023/12/09 08:40:10;;;;;;;;;;;;;;;21.05;35.59;100549.56;5019031;28;19935;-48
2023/12/09 08:42:36;;;;;;;;;;;;;;;21.05;35.30;100546.88;5071149;28;19941;-47
2023/12/09 08:45:01;;;;;;;;;;;;;;;21.05;35.46;100541.47;5092702;28;19916;-48
2023/12/09 08:47:26;;;;;;;;;;;;;;;21.04;35.50;100534.38;5020068;28;19914;-45
2023/12/09 08:49:52;;;;;;;;;;;;;;;21.03;35.51;100527.31;5046127;28;19917;-47
2023/12/09 08:52:19;;;;;;;;;;;;;;;21.04;35.50;100522.75;5039922;28;20000;-45
2023/12/09 08:54:44;;;;;;;;;;;;;;;21.02;35.24;100524.78;5014332;28;20017;-45
2023/12/09 08:57:10;;;;;;;;;;;;;;;21.02;35.56;100509.41;5020641;28;19961;-45
2023/12/09 08:59:36;;;;;;;;;;;;;;;21.01;35.24;100507.72;5022007;28;19989;-49
2023/12/09 09:02:01;;;;;;;;;;;;;;;21.01;35.32;100494.22;5030717;28;19970;-44
2023/12/09 09:04:26;;;;;;;;;;;;;;;21.01;35.33;100490.69;5090073;28;19917;-46
2023/12/09 09:06:51;;;;;;;;;;;;;;;20.99;35.31;100490.06;5084218;28;19917;-45
2023/12/09 09:09:16;;;;;;;;;;;;;;;20.99;35.43;100495.47;5019648;28;19914;-46
2023/12/09 09:11:42;;;;;;;;;;;;;;;20.97;35.44;100499.16;5007643;28;19914;-45
2023/12/09 09:14:07;;;;;;;;;;;;;;;20.98;35.56;100505.41;5035803;28;19917;-47
2023/12/09 09:16:32;;;;;;;;;;;;;;;20.97;35.52;100507.28;5043809;28;19916;-44
2023/12/09 09:18:57;;;;;;;;;;;;;;;20.96;35.21;100494.78;5009721;28;19914;-46
2023/12/09 09:21:23;;;;;;;;;;;;;;;20.95;35.51;100490.44;5027518;28;20463;-47
2023/12/09 09:23:49;;;;;;;;;;;;;;;20.96;35.59;100481.28;5035801;28;20081;-45
2023/12/09 09:26:14;;;;;;;;;;;;;;;20.94;35.29;100483.34;5010046;28;19914;-45
2023/12/09 09:28:39;;;;;;;;;;;;;;;20.95;35.54;100467.97;5073252;28;19940;-46
2023/12/09 09:31:04;;;;;;;;;;;;;;;20.96;35.40;100458.81;5023952;28;19956;-48
2023/12/09 09:33:29;;;;;;;;;;;;;;;20.95;35.36;100466.09;5064800;28;19914;-44
2023/12/09 09:35:55;;;;;;;;;;;;;;;20.96;35.29;100462.38;5016669;28;19917;-45
2023/12/09 09:38:20;;;;;;;;;;;;;;;20.96;35.27;100475.88;5030056;28;19918;-46
2023/12/09 09:40:46;;;;;;;;;;;;;;;20.97;35.44;100461.31;5022442;28;19918;-46
2023/12/09 09:43:21;;;;;;;;;;;;;;;20.96;35.54;100443.44;5072611;28;19914;-44
2023/12/09 09:45:47;;;;;;;;;;;;;;;20.99;35.20;100453.03;5066719;28;20101;-44
2023/12/09 09:48:12;;;;;;;;;;;;;;;21.00;35.50;100443.06;5022310;28;19914;-43
2023/12/09 09:50:44;;;;;;;;;;;;;;;21.02;35.21;100431.00;5014040;28;19924;-44
2023/12/09 09:53:09;;;;;;;;;;;;;;;21.02;35.33;100420.19;5069143;28;19920;-49
2023/12/09 09:55:35;;;;;;;;;;;;;;;21.04;35.16;100415.44;5071637;28;20062;-45
2023/12/09 09:58:00;;;;;;;;;;;;;;;21.04;35.07;100412.75;5047562;28;19936;-45
2023/12/09 10:00:28;;;;;;;;;;;;;;;21.06;35.25;100404.44;5068002;28;19998;-50
2023/12/09 10:02:53;;;;;;;;;;;;;;;21.08;35.17;100396.97;5066343;28;19917;-48
2023/12/09 10:05:20;;;;;;;;;;;;;;;21.06;34.97;100389.06;5008276;28;19978;-47
2023/12/09 10:07:45;;;;;;;;;;;;;;;21.09;34.96;100382.44;5031483;28;19914;-47
2023/12/09 10:10:11;;;;;;;;;;;;;;;21.09;34.99;100369.75;5036156;28;19924;-45
2023/12/09 10:12:36;;;;;;;;;;;;;;;21.10;34.98;100349.78;5037934;28;19920;-48
2023/12/09 10:15:02;;;;;;;;;;;;;;;21.11;35.01;100354.19;5052945;28;19956;-47
2023/12/09 10:17:27;;;;;;;;;;;;;;;21.13;35.06;100348.56;5023491;28;19917;-48
2023/12/09 10:19:56;;;;;;;;;;;;;;;21.13;35.08;100335.88;5010123;28;19925;-43
2023/12/09 10:22:21;;;;;;;;;;;;;;;21.16;34.78;100331.97;5025633;28;19914;-45
2023/12/09 10:24:50;;;;;;;;;;;;;;;21.17;35.00;100312.00;5065712;28;19918;-44
2023/12/09 10:27:16;;;;;;;;;;;;;;;21.19;34.86;100310.75;5018294;28;19992;-44
2023/12/09 10:29:41;;;;;;;;;;;;;;;21.21;34.66;100302.47;5062845;28;19992;-45
2023/12/09 10:32:06;;;;;;;;;;;;;;;21.21;34.60;100297.88;5033544;28;19921;-45
2023/12/09 10:34:31;;;;;;;;;;;;;;;21.25;34.78;100298.31;5079281;28;19980;-43
2023/12/09 10:36:57;;;;;;;;;;;;;;;21.28;34.53;100302.47;5014283;28;19925;-44
2023/12/09 10:39:22;;;;;;;;;;;;;;;21.29;34.93;100288.78;5030976;28;19921;-44
2023/12/09 10:41:47;;;;;;;;;;;;;;;21.33;34.56;100279.28;5022415;28;19918;-47
2023/12/09 10:44:12;;;;;;;;;;;;;;;21.35;34.66;100273.66;5031738;28;19969;-45
2023/12/09 10:46:38;;;;;;;;;;;;;;;21.39;34.58;100264.09;5037706;28;19916;-43
2023/12/09 10:49:03;;;;;;;;;;;;;;;21.42;34.52;100261.00;5025662;28;19914;-43
2023/12/09 10:51:28;;;;;;;;;;;;;;;21.44;34.37;100257.06;5065234;28;19918;-44
2023/12/09 10:53:53;;;;;;;;;;;;;;;21.47;34.36;100247.72;5023390;28;19989;-43
2023/12/09 10:56:18;;;;;;;;;;;;;;;21.50;34.55;100239.19;5043776;28;19918;-44
2023/12/09 10:58:44;;;;;;;;;;;;;;;21.52;34.62;100234.41;5007816;28;19941;-43
2023/12/09 11:01:09;;;;;;;;;;;;;;;21.57;34.42;100225.69;5026413;28;19922;-43
2023/12/09 11:03:34;;;;;;;;;;;;;;;21.59;34.12;100210.09;5060220;28;19913;-44
2023/12/09 11:05:59;;;;;;;;;;;;;;;21.64;34.12;100204.91;5067037;28;19914;-44
2023/12/09 11:08:28;;;;;;;;;;;;;;;21.69;34.27;100194.31;5070305;28;19913;-45
2023/12/09 11:10:53;;;;;;;;;;;;;;;21.78;34.03;100173.31;5066870;28;19919;-43
2023/12/09 11:13:19;;;;;;;;;;;;;;;21.78;34.11;100171.44;5028125;28;19988;-43
2023/12/09 11:15:45;;;;;;;;;;;;;;;21.83;33.75;100152.69;5018258;28;20072;-45
2023/12/09 11:18:10;;;;;;;;;;;;;;;21.87;33.81;100142.28;5026716;28;19964;-43
2023/12/09 11:20:36;;;;;;;;;;;;;;;21.92;33.71;100131.72;5024911;28;19913;-44
2023/12/09 11:23:01;;;;;;;;;;;;;;;21.92;33.59;100124.41;5066299;28;19918;-43
2023/12/09 11:25:28;;;;;;;;;;;;;;;21.96;33.56;100117.53;5049810;28;19920;-43
2023/12/09 11:27:53;;;;;;;;;;;;;;;22.02;33.61;100105.03;5027648;28;19980;-44
2023/12/09 11:30:34;;;;;;;;;;;;;;;22.01;33.36;100102.56;5009643;28;19918;-48
2023/12/09 11:33:00;;;;;;;;;;;;;;;22.00;33.42;100096.28;5015811;28;19914;-46
2023/12/09 11:35:26;;;;;;;;;;;;;;;22.03;33.73;100090.47;5045798;28;19913;-44
2023/12/09 11:37:51;;;;;;;;;;;;;;;22.05;33.66;100074.88;5045540;28;19923;-45
2023/12/09 11:40:16;;;;;;;;;;;;;;;22.10;33.54;100061.53;5062301;28;19923;-45
2023/12/09 11:42:41;;;;;;;;;;;;;;;22.14;33.46;100056.56;5063081;28;19925;-47
2023/12/09 11:45:07;;;;;;;;;;;;;;;22.18;33.12;100039.69;5009890;28;19912;-44
2023/12/09 11:47:32;;;;;;;;;;;;;;;22.20;33.19;100025.91;5063796;28;20394;-46
2023/12/09 11:49:57;;;;;;;;;;;;;;;22.24;33.13;100027.16;5020018;28;20329;-45
2023/12/09 11:52:23;;;;;;;;;;;;;;;22.27;33.02;100024.03;5073964;28;19981;-45
2023/12/09 11:54:58;;;;;;;;;;;;;;;22.29;33.21;100011.09;5062059;28;19968;-47
2023/12/09 11:57:23;;;;;;;;;;;;;;;22.32;33.13;99997.13;5084267;28;19979;-44
2023/12/09 11:59:48;;;;;;;;;;;;;;;22.35;33.03;99979.66;5015131;28;19942;-44
2023/12/09 12:02:13;;;;;;;;;;;;;;;22.35;33.30;99972.34;5017438;28;19917;-45
2023/12/09 12:04:39;;;;;;;;;;;;;;;22.36;33.13;99976.72;5039481;28;19916;-44
2023/12/09 12:07:04;;;;;;;;;;;;;;;22.39;32.76;99980.88;5016368;28;19940;-45
2023/12/09 12:09:29;;;;;;;;;;;;;;;22.42;32.94;99967.72;5024547;28;19912;-45
2023/12/09 12:11:54;;;;;;;;;;;;;;;22.44;33.02;99962.94;5063761;28;19968;-45
2023/12/09 12:14:20;;;;;;;;;;;;;;;22.50;32.73;99955.81;5018744;28;20062;-49
2023/12/09 12:16:45;;;;;;;;;;;;;;;22.51;32.86;99967.47;5072392;28;20388;-43
2023/12/09 12:19:10;;;;;;;;;;;;;;;22.51;32.75;99952.06;5020358;28;20011;-46
2023/12/09 12:21:35;;;;;;;;;;;;;;;22.53;32.60;99949.97;5031216;28;19945;-44
2023/12/09 12:24:05;;;;;;;;;;;;;;;22.54;32.74;99934.53;5024496;28;19936;-43
2023/12/09 12:26:31;;;;;;;;;;;;;;;22.56;32.86;99927.06;5036888;28;19916;-47
2023/12/09 12:28:56;;;;;;;;;;;;;;;22.59;32.56;99908.47;5030457;28;19919;-46